Time;durP1;ratioP1;P1;durP2;ratioP2;P2;SDS_P1;SDS_P2;PMS_P1;PMS_P2;Temp;Humidity;BMP_temperature;BMP_pressure;BME280_temperature;BME280_humidity;BME280_pressure;Samples;Min_cycle;Max_cycle;Signal;HPM_P1;HPM_P2
2021/12/31 00:02:18;;;;;;;12.18;8.23;;;13.30;99.90;;;;;;5040135;28;20220;-82
2021/12/31 00:05:03;;;;;;;10.07;6.55;;;13.30;99.90;;;;;;5028068;28;20252;-83
2021/12/31 00:07:31;;;;;;;10.57;8.13;;;13.30;99.90;;;;;;5036769;28;20283;-82
2021/12/31 00:10:03;;;;;;;13.30;6.85;;;13.30;99.90;;;;;;5036670;28;20216;-83
2021/12/31 00:12:31;;;;;;;8.40;6.95;;;13.30;99.90;;;;;;5037134;28;20184;-83
2021/12/31 00:14:58;;;;;;;10.32;5.85;;;13.30;99.90;;;;;;5029277;28;20251;-83
2021/12/31 00:17:26;;;;;;;9.15;5.93;;;13.40;99.90;;;;;;5025699;28;20247;-83
2021/12/31 00:20:00;;;;;;;8.88;5.57;;;13.40;99.90;;;;;;5027281;28;20240;-83
2021/12/31 00:22:51;;;;;;;9.27;6.45;;;13.40;99.90;;;;;;5024100;28;20208;-83
2021/12/31 00:25:20;;;;;;;16.00;6.47;;;13.40;99.90;;;;;;5021789;28;20229;-84
2021/12/31 00:27:47;;;;;;;14.65;5.78;;;13.40;99.90;;;;;;5033005;28;20272;-82
2021/12/31 00:30:15;;;;;;;10.32;5.85;;;13.40;99.90;;;;;;5033802;28;20200;-82
2021/12/31 00:32:42;;;;;;;10.23;6.03;;;13.40;99.90;;;;;;5037340;28;20211;-82
2021/12/31 00:35:10;;;;;;;9.05;6.47;;;13.50;99.90;;;;;;5031500;28;20288;-83
2021/12/31 00:37:38;;;;;;;10.82;5.60;;;13.40;99.90;;;;;;5022005;28;20197;-83
2021/12/31 00:40:08;;;;;;;11.50;6.40;;;13.40;99.90;;;;;;5021775;28;20285;-83
2021/12/31 00:42:36;;;;;;;8.38;5.88;;;13.40;99.90;;;;;;5026739;28;20236;-83
2021/12/31 00:45:03;;;;;;;8.10;5.60;;;13.40;99.90;;;;;;5026587;28;20299;-83
2021/12/31 00:47:30;;;;;;;10.05;5.90;;;13.40;99.90;;;;;;5030401;28;20200;-83
2021/12/31 00:49:57;;;;;;;11.93;6.80;;;13.40;99.90;;;;;;5020416;28;20263;-83
2021/12/31 00:52:24;;;;;;;15.77;7.78;;;13.40;99.90;;;;;;5030493;28;20231;-83
2021/12/31 00:54:51;;;;;;;15.60;6.85;;;13.40;99.90;;;;;;5031203;28;20231;-83
2021/12/31 00:57:18;;;;;;;8.18;6.25;;;13.40;99.90;;;;;;5024012;28;20208;-83
2021/12/31 00:59:46;;;;;;;7.93;6.00;;;13.40;99.90;;;;;;5027256;28;20219;-83
2021/12/31 01:02:13;;;;;;;17.48;6.68;;;13.40;99.90;;;;;;5028754;28;20316;-83
2021/12/31 01:04:40;;;;;;;7.20;5.70;;;13.40;99.90;;;;;;5024141;28;20223;-83
2021/12/31 01:07:08;;;;;;;12.73;6.18;;;13.50;99.90;;;;;;5035385;28;20208;-83
2021/12/31 01:09:36;;;;;;;10.02;5.28;;;13.40;99.90;;;;;;5023939;28;20640;-83
2021/12/31 01:12:06;;;;;;;8.82;5.90;;;13.40;99.90;;;;;;5029693;28;20232;-82
2021/12/31 01:14:37;;;;;;;9.15;5.90;;;13.40;99.90;;;;;;5038210;28;20224;-82
2021/12/31 01:17:08;;;;;;;7.65;5.28;;;13.40;99.90;;;;;;5042632;28;20239;-82
2021/12/31 01:19:46;;;;;;;5.82;5.22;;;13.50;99.90;;;;;;5039918;28;20189;-83
2021/12/31 01:22:15;;;;;;;7.25;5.43;;;13.50;99.90;;;;;;5026210;28;20247;-83
2021/12/31 01:24:41;;;;;;;8.95;6.10;;;13.50;99.90;;;;;;5027532;28;20205;-83
2021/12/31 01:27:08;;;;;;;5.57;5.03;;;13.50;99.90;;;;;;5040476;28;20181;-83
2021/12/31 01:29:35;;;;;;;9.50;5.85;;;13.50;99.90;;;;;;5043261;28;20189;-82
2021/12/31 01:32:02;;;;;;;11.63;6.15;;;13.50;99.90;;;;;;5046545;28;20189;-82
2021/12/31 01:34:31;;;;;;;8.23;6.80;;;13.50;99.90;;;;;;5033603;28;20285;-82
2021/12/31 01:36:59;;;;;;;12.63;6.30;;;13.50;99.90;;;;;;5033048;28;20208;-83
2021/12/31 01:39:26;;;;;;;9.43;5.22;;;13.50;99.90;;;;;;5040034;28;20189;-82
2021/12/31 01:41:53;;;;;;;7.85;5.35;;;13.60;99.90;;;;;;5039908;28;20197;-83
2021/12/31 01:44:23;;;;;;;8.23;5.18;;;13.50;99.90;;;;;;5039868;28;20213;-82
2021/12/31 01:47:04;;;;;;;4.97;4.28;;;13.50;99.90;;;;;;5040216;28;20236;-82
2021/12/31 01:49:36;;;;;;;6.05;4.15;;;13.60;99.90;;;;;;5040807;28;20196;-83
2021/12/31 01:52:05;;;;;;;6.20;4.80;;;13.60;99.90;;;;;;5032630;28;20205;-83
2021/12/31 01:54:32;;;;;;;8.45;4.80;;;13.60;99.90;;;;;;5022034;28;20662;-83
2021/12/31 01:57:02;;;;;;;9.65;3.95;;;13.60;99.90;;;;;;5022557;28;20284;-83
2021/12/31 01:59:30;;;;;;;6.97;4.53;;;13.70;99.90;;;;;;5024292;28;20386;-83
2021/12/31 02:01:58;;;;;;;8.38;3.67;;;13.60;99.90;;;;;;5033922;28;20211;-83
2021/12/31 02:04:25;;;;;;;5.82;4.85;;;13.60;99.90;;;;;;5023466;28;20371;-82
2021/12/31 02:06:53;;;;;;;8.73;4.10;;;13.60;99.90;;;;;;5030644;28;20283;-83
2021/12/31 02:09:20;;;;;;;9.20;3.65;;;13.60;99.90;;;;;;5027473;28;20320;-82
2021/12/31 02:11:46;;;;;;;5.90;3.45;;;13.60;99.90;;;;;;5042422;28;20212;-82
2021/12/31 02:14:13;;;;;;;4.68;2.90;;;13.60;99.90;;;;;;5034057;28;20577;-82
2021/12/31 02:16:40;;;;;;;7.85;3.20;;;13.60;99.90;;;;;;5025216;28;20232;-82
2021/12/31 02:19:15;;;;;;;8.13;4.30;;;13.60;99.90;;;;;;5025087;28;20259;-82
2021/12/31 02:21:45;;;;;;;8.48;3.60;;;13.70;99.90;;;;;;5016213;28;20653;-82
2021/12/31 02:24:13;;;;;;;6.55;3.60;;;13.70;99.90;;;;;;5025206;28;20276;-83
2021/12/31 02:26:40;;;;;;;7.95;3.65;;;13.70;99.90;;;;;;5024078;28;20201;-83
2021/12/31 02:29:08;;;;;;;5.35;4.85;;;13.70;99.90;;;;;;5024904;28;20247;-84
2021/12/31 02:31:35;;;;;;;6.00;3.50;;;13.70;99.90;;;;;;5024354;28;20244;-82
2021/12/31 02:34:02;;;;;;;4.53;3.50;;;13.70;99.90;;;;;;5029420;28;20205;-82
2021/12/31 02:36:28;;;;;;;9.20;4.32;;;13.70;99.90;;;;;;5023246;28;20229;-82
2021/12/31 02:38:57;;;;;;;7.07;3.38;;;13.70;99.90;;;;;;5024771;28;20291;-82
2021/12/31 02:41:23;;;;;;;7.15;3.70;;;13.70;99.90;;;;;;5025404;28;20292;-83
2021/12/31 02:43:50;;;;;;;10.02;4.85;;;13.70;99.90;;;;;;5023981;28;20256;-82
2021/12/31 02:46:17;;;;;;;4.90;4.22;;;13.70;99.90;;;;;;5023342;28;20227;-82
2021/12/31 02:48:44;;;;;;;6.85;3.90;;;13.70;99.90;;;;;;5023366;28;20232;-82
2021/12/31 02:51:11;;;;;;;10.20;3.35;;;13.70;99.90;;;;;;5022002;28;20212;-82
2021/12/31 02:53:40;;;;;;;8.35;4.15;;;13.70;99.90;;;;;;5026200;28;20199;-82
2021/12/31 02:56:10;;;;;;;6.65;3.20;;;13.70;99.90;;;;;;5024898;28;20686;-82
2021/12/31 02:58:39;;;;;;;6.80;4.05;;;13.70;99.90;;;;;;5022043;28;20227;-82
2021/12/31 03:01:07;;;;;;;7.97;4.35;;;13.70;99.90;;;;;;5022854;28;20209;-82
2021/12/31 03:03:36;;;;;;;10.07;3.88;;;13.70;99.90;;;;;;5022939;28;20289;-82
2021/12/31 03:06:04;;;;;;;7.35;3.70;;;13.70;99.90;;;;;;5022177;28;20260;-82
2021/12/31 03:08:32;;;;;;;10.70;4.07;;;13.70;99.90;;;;;;5030874;28;20203;-81
2021/12/31 03:11:02;;;;;;;5.65;3.20;;;13.80;99.90;;;;;;5036413;28;20233;-82
2021/12/31 03:13:31;;;;;;;7.07;3.78;;;13.70;99.90;;;;;;5036052;28;20217;-81
2021/12/31 03:16:00;;;;;;;4.60;3.35;;;13.80;99.90;;;;;;5032620;28;20271;-82
2021/12/31 03:18:27;;;;;;;4.90;3.30;;;13.80;99.90;;;;;;5023327;28;20291;-82
2021/12/31 03:21:05;;;;;;;4.03;3.00;;;13.80;99.90;;;;;;5021109;28;20764;-82
2021/12/31 03:23:32;;;;;;;5.53;3.83;;;13.80;99.90;;;;;;5021040;28;20204;-82
2021/12/31 03:25:59;;;;;;;5.28;3.50;;;13.90;99.90;;;;;;5021062;28;20229;-82
2021/12/31 03:28:26;;;;;;;8.85;4.07;;;13.90;99.90;;;;;;5020297;28;20653;-82
2021/12/31 03:30:55;;;;;;;5.93;3.17;;;13.90;99.90;;;;;;5022489;28;20276;-81
2021/12/31 03:33:22;;;;;;;5.80;3.70;;;13.80;99.90;;;;;;5031156;28;20224;-82
2021/12/31 03:35:49;;;;;;;5.68;3.40;;;13.90;99.90;;;;;;5020919;28;20236;-82
2021/12/31 03:38:16;;;;;;;5.45;3.90;;;13.80;99.90;;;;;;5024879;28;20255;-82
2021/12/31 03:40:46;;;;;;;6.97;3.10;;;13.80;99.90;;;;;;5017495;28;20292;-83
2021/12/31 03:43:13;;;;;;;6.25;3.63;;;13.80;99.90;;;;;;5019525;28;20272;-84
2021/12/31 03:45:40;;;;;;;9.02;3.92;;;13.80;99.90;;;;;;5019733;28;20231;-82
2021/12/31 03:48:08;;;;;;;6.50;3.90;;;13.80;99.90;;;;;;5018911;28;20201;-82
2021/12/31 03:50:35;;;;;;;8.65;3.75;;;13.80;99.90;;;;;;5023754;28;20269;-83
2021/12/31 03:53:02;;;;;;;10.05;4.18;;;13.80;99.90;;;;;;5016806;28;20227;-82
2021/12/31 03:55:28;;;;;;;8.65;3.72;;;13.80;99.90;;;;;;5017898;28;20221;-83
2021/12/31 03:57:55;;;;;;;5.95;4.25;;;13.80;99.90;;;;;;5019405;28;20211;-83
2021/12/31 04:00:22;;;;;;;7.20;4.20;;;13.80;99.90;;;;;;5020984;28;20572;-83
2021/12/31 04:02:49;;;;;;;5.00;3.70;;;13.70;99.90;;;;;;5043301;28;20650;-83
2021/12/31 04:05:17;;;;;;;8.05;4.05;;;13.80;99.90;;;;;;5019956;28;20329;-83
2021/12/31 04:07:44;;;;;;;11.38;3.72;;;13.80;99.90;;;;;;5020543;28;20205;-83
2021/12/31 04:10:11;;;;;;;8.02;4.30;;;13.80;99.90;;;;;;5019910;28;20197;-82
2021/12/31 04:12:38;;;;;;;5.25;4.22;;;13.80;99.90;;;;;;5021271;28;20204;-82
2021/12/31 04:15:06;;;;;;;6.97;4.40;;;13.80;99.90;;;;;;5019696;28;20325;-83
2021/12/31 04:17:33;;;;;;;8.75;5.15;;;13.70;99.90;;;;;;5027595;28;20302;-82
2021/12/31 04:20:00;;;;;;;9.50;5.45;;;13.70;99.90;;;;;;5018451;28;20205;-83
2021/12/31 04:22:30;;;;;;;13.98;5.40;;;13.70;99.90;;;;;;5017700;28;20299;-83
2021/12/31 04:24:57;;;;;;;6.75;4.32;;;13.70;99.90;;;;;;5019129;28;20247;-83
2021/12/31 04:27:24;;;;;;;9.07;5.50;;;13.70;99.90;;;;;;5020375;28;20203;-82
2021/12/31 04:29:52;;;;;;;9.75;4.93;;;13.70;99.90;;;;;;5018087;28;20719;-83
2021/12/31 04:32:20;;;;;;;12.55;5.50;;;13.70;99.90;;;;;;5010819;28;20208;-83
2021/12/31 04:34:47;;;;;;;5.97;5.13;;;13.70;99.90;;;;;;5021304;28;20605;-83
2021/12/31 04:37:14;;;;;;;9.95;5.70;;;13.70;99.90;;;;;;5022912;28;20212;-82
2021/12/31 04:39:43;;;;;;;14.15;8.55;;;13.70;99.90;;;;;;5020828;28;20222;-83
2021/12/31 04:42:10;;;;;;;7.13;6.43;;;13.70;99.90;;;;;;5024451;28;20205;-83
2021/12/31 04:44:37;;;;;;;8.05;6.40;;;13.70;99.90;;;;;;5023446;28;20224;-83
2021/12/31 04:47:04;;;;;;;11.15;8.60;;;13.60;99.90;;;;;;5031837;28;20239;-82
2021/12/31 04:49:31;;;;;;;12.07;7.88;;;13.60;99.90;;;;;;5024311;28;20229;-82
2021/12/31 04:51:58;;;;;;;9.68;7.95;;;13.60;99.90;;;;;;5022333;28;20219;-82
2021/12/31 04:54:24;;;;;;;9.80;8.50;;;13.60;99.90;;;;;;5023454;28;20235;-83
2021/12/31 04:56:54;;;;;;;12.88;7.55;;;13.60;99.90;;;;;;5024755;28;20228;-83
2021/12/31 04:59:21;;;;;;;10.02;8.52;;;13.60;99.90;;;;;;5034974;28;20630;-82
2021/12/31 05:02:33;;;;;;;8.52;7.72;;;13.50;99.90;;;;;;5025746;28;20402;-83
2021/12/31 05:05:01;;;;;;;15.20;9.55;;;13.50;99.90;;;;;;5000098;28;20220;-82
2021/12/31 05:07:28;;;;;;;10.23;8.48;;;13.50;99.90;;;;;;5025469;28;20565;-82
2021/12/31 05:09:55;;;;;;;10.43;8.68;;;13.50;99.90;;;;;;5030104;28;20319;-82
2021/12/31 05:12:27;;;;;;;9.88;8.35;;;13.50;99.90;;;;;;5034398;28;20232;-82
2021/12/31 05:14:54;;;;;;;9.50;8.38;;;13.50;99.90;;;;;;5025039;28;20225;-82
2021/12/31 05:17:21;;;;;;;11.52;8.57;;;13.60;99.90;;;;;;5025605;28;20303;-82
2021/12/31 05:19:48;;;;;;;12.43;7.65;;;13.60;99.90;;;;;;5025036;28;20200;-82
2021/12/31 05:22:15;;;;;;;12.75;8.23;;;13.60;99.90;;;;;;5024326;28;20205;-82
2021/12/31 05:24:43;;;;;;;11.10;8.52;;;13.60;99.90;;;;;;5026159;28;20213;-82
2021/12/31 05:27:10;;;;;;;11.80;8.60;;;13.70;99.90;;;;;;5037678;28;20236;-83
2021/12/31 05:29:38;;;;;;;11.63;8.75;;;13.70;99.90;;;;;;5027928;28;20264;-83
2021/12/31 05:32:06;;;;;;;15.48;8.68;;;13.70;99.90;;;;;;5027669;28;20232;-83
2021/12/31 05:34:33;;;;;;;8.52;7.57;;;13.70;99.90;;;;;;5029078;28;20244;-83
2021/12/31 05:37:00;;;;;;;9.45;6.72;;;13.80;99.90;;;;;;5028972;28;20242;-82
2021/12/31 05:39:54;;;;;;;8.23;7.28;;;13.80;99.90;;;;;;5025970;28;20211;-83
2021/12/31 05:42:21;;;;;;;9.48;7.90;;;13.70;99.90;;;;;;5020339;28;20648;-83
2021/12/31 05:44:49;;;;;;;7.68;6.90;;;13.80;99.90;;;;;;5036364;28;20252;-83
2021/12/31 05:47:17;;;;;;;13.65;8.43;;;13.80;99.90;;;;;;5038405;28;20189;-82
2021/12/31 05:49:45;;;;;;;7.20;6.50;;;13.80;99.90;;;;;;5041452;28;20228;-82
2021/12/31 05:52:12;;;;;;;7.72;6.93;;;13.80;99.90;;;;;;5037235;28;20296;-82
2021/12/31 05:54:39;;;;;;;7.20;6.50;;;13.80;99.90;;;;;;5028968;28;20256;-82
2021/12/31 05:57:06;;;;;;;8.70;6.82;;;13.80;99.90;;;;;;5025128;28;20324;-83
2021/12/31 05:59:33;;;;;;;9.57;6.45;;;13.80;99.90;;;;;;5022565;28;20193;-82
2021/12/31 06:02:01;;;;;;;7.32;6.63;;;13.80;99.90;;;;;;5022854;28;20240;-82
2021/12/31 06:04:28;;;;;;;8.07;5.47;;;13.80;99.90;;;;;;5021571;28;20311;-82
2021/12/31 06:06:55;;;;;;;7.68;6.95;;;13.70;99.90;;;;;;5022695;28;20240;-82
2021/12/31 06:09:22;;;;;;;8.10;6.10;;;13.80;99.90;;;;;;5021869;28;20617;-86
2021/12/31 06:11:49;;;;;;;6.55;5.47;;;13.80;99.90;;;;;;5024105;28;20248;-84
2021/12/31 06:14:16;;;;;;;9.52;7.10;;;13.80;99.90;;;;;;5021847;28;20209;-82
2021/12/31 06:16:46;;;;;;;9.73;6.18;;;13.80;99.90;;;;;;5025335;28;20220;-82
2021/12/31 06:19:15;;;;;;;8.65;5.93;;;13.80;99.90;;;;;;5024220;28;20201;-82
2021/12/31 06:21:44;;;;;;;6.03;5.43;;;13.80;99.90;;;;;;5022999;28;20283;-82
2021/12/31 06:24:11;;;;;;;6.55;5.93;;;13.80;99.90;;;;;;5030104;28;20215;-82
2021/12/31 06:26:38;;;;;;;8.23;6.00;;;13.90;99.90;;;;;;5022478;28;20201;-83
2021/12/31 06:29:06;;;;;;;7.70;5.70;;;13.90;99.90;;;;;;5021496;28;20232;-82
2021/12/31 06:31:33;;;;;;;5.95;5.32;;;13.80;99.90;;;;;;5021181;28;20241;-83
2021/12/31 06:34:00;;;;;;;7.75;5.90;;;13.90;99.90;;;;;;5023129;28;20273;-81
2021/12/31 06:36:28;;;;;;;8.20;6.82;;;13.90;99.90;;;;;;5021848;28;20221;-82
2021/12/31 06:38:57;;;;;;;6.38;5.70;;;13.90;99.90;;;;;;5026911;28;20213;-83
2021/12/31 06:41:24;;;;;;;6.43;5.70;;;13.90;99.90;;;;;;5024745;28;20245;-82
2021/12/31 06:43:50;;;;;;;11.68;7.65;;;13.90;99.90;;;;;;5023308;28;20233;-82
2021/12/31 06:46:21;;;;;;;6.07;5.47;;;14.00;99.90;;;;;;5021087;28;20245;-82
2021/12/31 06:48:47;;;;;;;6.32;4.95;;;14.00;99.90;;;;;;5021704;28;20224;-84
2021/12/31 06:51:15;;;;;;;5.68;4.60;;;14.00;99.90;;;;;;5019073;28;20205;-82
2021/12/31 06:53:43;;;;;;;9.02;5.72;;;14.00;99.90;;;;;;5007517;28;20202;-83
2021/12/31 06:56:10;;;;;;;6.15;5.55;;;14.00;99.90;;;;;;5019887;28;20312;-83
2021/12/31 06:58:37;;;;;;;7.30;4.60;;;14.10;99.90;;;;;;5020763;28;20201;-83
2021/12/31 07:01:04;;;;;;;6.72;4.35;;;14.00;99.90;;;;;;5020630;28;20268;-83
2021/12/31 07:03:31;;;;;;;5.32;4.72;;;14.00;99.90;;;;;;5019208;28;20693;-83
2021/12/31 07:05:58;;;;;;;5.43;4.30;;;14.00;99.90;;;;;;5020823;28;20228;-83
2021/12/31 07:08:27;;;;;;;4.65;4.13;;;14.00;99.90;;;;;;5032848;28;20201;-81
2021/12/31 07:10:55;;;;;;;9.35;3.65;;;14.00;99.90;;;;;;5020522;28;20269;-82
2021/12/31 07:13:22;;;;;;;5.60;4.20;;;14.00;99.90;;;;;;5020197;28;20669;-82
2021/12/31 07:15:51;;;;;;;11.75;4.75;;;14.00;99.90;;;;;;5027512;28;20248;-82
2021/12/31 07:18:19;;;;;;;7.85;4.32;;;14.00;99.90;;;;;;5034068;28;20651;-83
2021/12/31 07:20:47;;;;;;;4.35;3.95;;;14.00;99.90;;;;;;5031763;28;20240;-82
2021/12/31 07:23:16;;;;;;;6.68;4.90;;;13.90;99.90;;;;;;5030363;28;20663;-82
2021/12/31 07:25:43;;;;;;;4.80;4.30;;;13.90;99.90;;;;;;5024095;28;20717;-82
2021/12/31 07:28:13;;;;;;;4.97;4.47;;;13.90;99.90;;;;;;5026681;28;20250;-83
2021/12/31 07:30:40;;;;;;;7.03;4.82;;;13.90;99.90;;;;;;5025704;28;20205;-82
2021/12/31 07:33:14;;;;;;;6.00;4.93;;;13.80;99.90;;;;;;5026162;28;20264;-82
2021/12/31 07:35:40;;;;;;;7.88;6.55;;;13.80;99.90;;;;;;5025392;28;20292;-83
2021/12/31 07:38:11;;;;;;;6.13;4.55;;;13.90;99.90;;;;;;5023895;28;20249;-83
2021/12/31 07:40:41;;;;;;;5.32;4.07;;;13.90;99.90;;;;;;5024344;28;20190;-82
2021/12/31 07:43:11;;;;;;;8.68;4.78;;;13.80;99.90;;;;;;5022570;28;20211;-82
2021/12/31 07:45:39;;;;;;;5.20;3.90;;;13.80;99.90;;;;;;5022647;28;20286;-82
2021/12/31 07:48:06;;;;;;;8.50;4.97;;;13.80;99.90;;;;;;5022349;28;20225;-82
2021/12/31 07:50:34;;;;;;;6.75;4.13;;;13.70;99.90;;;;;;5021660;28;20202;-83
2021/12/31 07:53:01;;;;;;;6.25;4.45;;;13.70;99.90;;;;;;5021058;28;20299;-82
2021/12/31 07:55:28;;;;;;;6.60;4.80;;;13.70;99.90;;;;;;5025024;28;20313;-82
2021/12/31 07:57:54;;;;;;;4.47;4.07;;;13.70;99.90;;;;;;5021903;28;20221;-82
2021/12/31 08:00:23;;;;;;;6.57;3.40;;;13.70;99.90;;;;;;5022239;28;20648;-83
2021/12/31 08:02:50;;;;;;;6.10;3.83;;;13.70;99.90;;;;;;5021175;28;20268;-81
2021/12/31 08:05:17;;;;;;;9.93;4.50;;;13.80;99.90;;;;;;5031207;28;20228;-83
2021/12/31 08:07:44;;;;;;;6.07;3.90;;;13.70;99.90;;;;;;5021911;28;20225;-83
2021/12/31 08:10:10;;;;;;;3.95;3.55;;;13.70;99.90;;;;;;5028037;28;20681;-84
2021/12/31 08:12:37;;;;;;;4.85;3.28;;;13.80;99.90;;;;;;5035262;28;20189;-81
2021/12/31 08:15:05;;;;;;;6.20;3.72;;;13.80;99.90;;;;;;5028789;28;20260;-81
2021/12/31 08:17:34;;;;;;;5.82;3.88;;;13.70;99.90;;;;;;5034890;28;20232;-82
2021/12/31 08:20:01;;;;;;;3.53;3.03;;;13.80;99.90;;;;;;5041776;28;20204;-83
2021/12/31 08:22:27;;;;;;;5.40;3.28;;;13.80;99.90;;;;;;5035786;28;20189;-82
2021/12/31 08:24:54;;;;;;;4.05;3.30;;;13.80;99.90;;;;;;5030534;28;20220;-84
2021/12/31 08:27:21;;;;;;;3.88;3.58;;;13.70;99.90;;;;;;5020368;28;20296;-82
2021/12/31 08:29:49;;;;;;;9.05;3.90;;;13.90;99.90;;;;;;5025271;28;20224;-83
2021/12/31 08:32:15;;;;;;;5.47;4.10;;;13.90;99.90;;;;;;5021304;28;20239;-82
2021/12/31 08:34:44;;;;;;;5.38;3.78;;;13.90;99.90;;;;;;5029125;28;20252;-82
2021/12/31 08:37:11;;;;;;;4.22;3.83;;;14.00;99.90;;;;;;5018420;28;20220;-82
2021/12/31 08:39:38;;;;;;;6.65;4.10;;;14.00;99.90;;;;;;5024991;28;20308;-82
2021/12/31 08:42:06;;;;;;;4.40;3.63;;;14.00;99.90;;;;;;5023198;28;20249;-83
2021/12/31 08:44:33;;;;;;;4.47;3.60;;;14.00;99.90;;;;;;5024851;28;20235;-84
2021/12/31 08:47:00;;;;;;;6.07;5.50;;;14.10;99.90;;;;;;5037760;28;20181;-84
2021/12/31 08:49:27;;;;;;;6.30;4.28;;;14.00;99.90;;;;;;5024781;28;20240;-81
2021/12/31 08:51:55;;;;;;;6.80;4.25;;;14.00;99.90;;;;;;5026666;28;20236;-84
2021/12/31 08:54:23;;;;;;;4.88;4.03;;;14.10;99.90;;;;;;5027657;28;20208;-82
2021/12/31 08:56:50;;;;;;;5.25;4.43;;;14.00;99.90;;;;;;5025548;28;20224;-82
2021/12/31 08:59:19;;;;;;;5.38;4.88;;;14.00;99.90;;;;;;5024855;28;20240;-82
2021/12/31 09:01:45;;;;;;;7.60;3.95;;;14.00;99.90;;;;;;5026938;28;20324;-83
2021/12/31 09:04:13;;;;;;;4.63;3.60;;;14.00;99.90;;;;;;5031651;28;20228;-83
2021/12/31 09:06:40;;;;;;;4.70;4.30;;;14.00;99.90;;;;;;5036644;28;20300;-82
2021/12/31 09:09:08;;;;;;;5.25;3.75;;;14.10;99.90;;;;;;5028051;28;20232;-83
2021/12/31 09:11:35;;;;;;;6.53;4.03;;;14.20;99.90;;;;;;5028146;28;20224;-82
2021/12/31 09:14:02;;;;;;;3.67;3.28;;;14.10;99.90;;;;;;5029668;28;20213;-84
2021/12/31 09:16:30;;;;;;;4.32;3.80;;;14.20;99.90;;;;;;5029455;28;20201;-82
2021/12/31 09:18:56;;;;;;;4.60;4.15;;;14.20;99.90;;;;;;5025329;28;20609;-83
2021/12/31 09:21:23;;;;;;;5.10;4.00;;;14.20;99.90;;;;;;5035781;28;20217;-84
2021/12/31 09:23:50;;;;;;;4.75;4.25;;;14.20;99.90;;;;;;5032641;28;20236;-83
2021/12/31 09:26:18;;;;;;;4.57;4.00;;;14.20;99.90;;;;;;5032764;28;20308;-83
2021/12/31 09:28:45;;;;;;;3.75;3.40;;;14.20;99.90;;;;;;5031417;28;20601;-82
2021/12/31 09:31:13;;;;;;;8.85;4.88;;;14.20;99.90;;;;;;5032017;28;20227;-84
2021/12/31 09:33:41;;;;;;;6.00;3.95;;;14.20;99.90;;;;;;5032666;28;20226;-81
2021/12/31 09:36:09;;;;;;;5.57;4.72;;;14.20;99.90;;;;;;5033401;28;20212;-83
2021/12/31 09:38:36;;;;;;;4.18;3.80;;;14.20;99.90;;;;;;5033764;28;20225;-83
2021/12/31 09:41:03;;;;;;;5.60;3.63;;;14.20;99.90;;;;;;5035384;28;20205;-82
2021/12/31 09:43:36;;;;;;;5.32;4.18;;;14.20;99.90;;;;;;5038560;28;20252;-82
2021/12/31 09:46:03;;;;;;;5.43;3.50;;;14.10;99.90;;;;;;5037918;28;20221;-82
2021/12/31 09:48:30;;;;;;;5.32;4.43;;;14.10;99.90;;;;;;5031416;28;20205;-82
2021/12/31 09:50:58;;;;;;;6.82;4.90;;;14.20;99.90;;;;;;5033703;28;20272;-83
2021/12/31 09:53:26;;;;;;;6.15;3.83;;;14.20;99.90;;;;;;5035711;28;20264;-82
2021/12/31 09:55:55;;;;;;;4.50;3.33;;;14.20;99.90;;;;;;5046359;28;20226;-83
2021/12/31 09:58:24;;;;;;;6.03;3.33;;;14.20;99.90;;;;;;5048320;28;20220;-82
2021/12/31 10:00:54;;;;;;;7.15;3.78;;;14.20;99.90;;;;;;5055461;28;20197;-82
2021/12/31 10:03:25;;;;;;;7.85;3.50;;;14.30;99.90;;;;;;5040056;28;20181;-82
2021/12/31 10:05:53;;;;;;;5.93;4.05;;;14.20;99.90;;;;;;5031494;28;20211;-82
2021/12/31 10:08:21;;;;;;;6.50;3.88;;;14.20;99.90;;;;;;5039700;28;20189;-82
2021/12/31 10:11:07;;;;;;;3.50;3.15;;;14.20;99.90;;;;;;5039241;28;20213;-83
2021/12/31 10:13:35;;;;;;;4.32;3.42;;;14.20;99.90;;;;;;5039883;28;20209;-82
2021/12/31 10:16:04;;;;;;;5.40;3.55;;;14.30;99.90;;;;;;5039410;28;20217;-83
2021/12/31 10:18:33;;;;;;;8.52;4.90;;;14.30;99.90;;;;;;5047811;28;20242;-83
2021/12/31 10:21:00;;;;;;;4.25;3.70;;;14.30;99.90;;;;;;5039230;28;20225;-82
2021/12/31 10:23:27;;;;;;;8.57;3.92;;;14.30;99.90;;;;;;5039244;28;20206;-83
2021/12/31 10:26:10;;;;;;;7.03;3.88;;;14.40;99.90;;;;;;5038837;28;20228;-83
2021/12/31 10:28:37;;;;;;;4.65;4.25;;;14.40;99.90;;;;;;5046565;28;20181;-82
2021/12/31 10:31:15;;;;;;;6.57;3.42;;;14.40;99.90;;;;;;5037685;28;20229;-84
2021/12/31 10:33:43;;;;;;;4.32;3.90;;;14.40;99.90;;;;;;5037818;28;20214;-82
2021/12/31 10:36:33;;;;;;;5.82;3.97;;;14.40;99.90;;;;;;5029718;28;20239;-83
2021/12/31 10:39:16;;;;;;;5.43;3.60;;;14.40;99.90;;;;;;5032551;28;20221;-83
2021/12/31 10:41:44;;;;;;;4.80;3.30;;;14.30;99.90;;;;;;5026685;28;20225;-82
2021/12/31 10:44:17;;;;;;;6.13;4.00;;;14.30;99.90;;;;;;5035055;28;20243;-82
2021/12/31 10:46:45;;;;;;;4.55;4.15;;;14.40;99.90;;;;;;5017112;28;20636;-83
2021/12/31 10:49:13;;;;;;;4.32;3.35;;;14.30;99.90;;;;;;5034537;28;20377;-82
2021/12/31 10:51:42;;;;;;;7.18;3.35;;;14.30;99.90;;;;;;5027159;28;20197;-83
2021/12/31 10:54:30;;;;;;;5.70;3.47;;;14.30;99.90;;;;;;5028049;28;20604;-82
2021/12/31 10:56:57;;;;;;;7.07;3.90;;;14.30;99.90;;;;;;5029132;28;20265;-82
2021/12/31 10:59:24;;;;;;;4.47;3.70;;;14.40;99.90;;;;;;5026210;28;20352;-83
2021/12/31 11:01:54;;;;;;;4.15;3.40;;;14.30;99.90;;;;;;5026950;28;20310;-84
2021/12/31 11:04:22;;;;;;;4.85;3.83;;;14.30;99.90;;;;;;5036945;28;20201;-83
2021/12/31 11:06:49;;;;;;;6.63;3.55;;;14.40;99.90;;;;;;5038901;28;20196;-84
2021/12/31 11:09:16;;;;;;;6.28;4.10;;;14.30;99.90;;;;;;5037647;28;20223;-81
2021/12/31 11:11:44;;;;;;;6.05;3.30;;;14.30;99.90;;;;;;5037972;28;20220;-82
2021/12/31 11:14:11;;;;;;;8.23;3.17;;;14.30;99.90;;;;;;5042217;28;20189;-83
2021/12/31 11:16:39;;;;;;;7.70;3.42;;;14.30;99.90;;;;;;5046109;28;20220;-83
2021/12/31 11:19:08;;;;;;;5.70;3.78;;;14.30;99.90;;;;;;5037775;28;20205;-83
2021/12/31 11:21:37;;;;;;;6.28;4.05;;;14.20;99.90;;;;;;5037149;28;20203;-83
2021/12/31 11:24:30;;;;;;;8.60;3.67;;;14.30;99.90;;;;;;5040618;28;20204;-82
2021/12/31 11:26:58;;;;;;;5.45;3.25;;;14.20;99.90;;;;;;5029888;28;20220;-83
2021/12/31 11:29:36;;;;;;;5.18;3.33;;;14.30;99.90;;;;;;5034351;28;20204;-83
2021/12/31 11:32:04;;;;;;;4.20;3.20;;;14.30;99.90;;;;;;5025956;28;20209;-83
2021/12/31 11:34:35;;;;;;;3.67;3.13;;;14.30;99.90;;;;;;5032312;28;20300;-83
2021/12/31 11:37:02;;;;;;;3.20;2.90;;;14.30;99.90;;;;;;5025223;28;20197;-82
2021/12/31 11:39:32;;;;;;;5.13;3.72;;;14.20;99.90;;;;;;5026632;28;20476;-83
2021/12/31 11:42:02;;;;;;;5.03;3.88;;;14.30;99.90;;;;;;5024583;28;20197;-83
2021/12/31 11:44:29;;;;;;;8.40;3.92;;;14.30;99.90;;;;;;5025640;28;20297;-82
2021/12/31 11:47:18;;;;;;;4.00;3.10;;;14.10;99.90;;;;;;5024248;28;20216;-83
2021/12/31 11:49:47;;;;;;;4.20;3.35;;;14.20;99.90;;;;;;5020366;28;20327;-82
2021/12/31 11:52:20;;;;;;;4.30;3.03;;;14.20;99.90;;;;;;5025539;28;20205;-83
2021/12/31 11:54:48;;;;;;;3.67;3.38;;;14.20;99.90;;;;;;5025024;28;20230;-82
2021/12/31 11:57:27;;;;;;;5.20;3.25;;;14.20;99.90;;;;;;5031766;28;20201;-82
2021/12/31 11:59:56;;;;;;;5.30;3.38;;;14.30;99.90;;;;;;5026739;28;20304;-83
2021/12/31 12:02:33;;;;;;;5.32;3.40;;;14.20;99.90;;;;;;5031636;28;20293;-82
2021/12/31 12:05:08;;;;;;;4.50;3.20;;;14.20;99.90;;;;;;5031958;28;20278;-82
2021/12/31 12:07:37;;;;;;;3.25;2.95;;;14.20;99.90;;;;;;5029164;28;20250;-82
2021/12/31 12:10:28;;;;;;;8.73;3.80;;;14.30;99.90;;;;;;5030760;28;20201;-82
2021/12/31 12:13:15;;;;;;;6.78;3.20;;;14.20;99.90;;;;;;5032162;28;20736;-82
2021/12/31 12:15:42;;;;;;;6.85;4.30;;;14.20;99.90;;;;;;5032211;28;20251;-83
2021/12/31 12:18:09;;;;;;;4.05;3.28;;;14.30;99.90;;;;;;5023354;28;20244;-82
2021/12/31 12:20:39;;;;;;;5.68;3.20;;;14.30;99.90;;;;;;5022342;28;20648;-83
2021/12/31 12:23:23;;;;;;;5.40;3.65;;;14.30;99.90;;;;;;5023637;28;20200;-83
2021/12/31 12:25:51;;;;;;;8.75;4.25;;;14.30;99.90;;;;;;5011294;28;20635;-83
2021/12/31 12:28:20;;;;;;;5.05;3.30;;;14.30;99.90;;;;;;5032027;28;20186;-83
2021/12/31 12:30:53;;;;;;;5.03;3.47;;;14.20;99.90;;;;;;5023513;28;20228;-82
2021/12/31 12:33:22;;;;;;;6.28;3.95;;;14.30;99.90;;;;;;5027410;28;20208;-82
2021/12/31 12:35:52;;;;;;;8.27;3.97;;;14.40;99.90;;;;;;5023097;28;20233;-82
2021/12/31 12:38:21;;;;;;;4.93;4.22;;;14.30;99.90;;;;;;5026506;28;20217;-83
2021/12/31 12:40:51;;;;;;;4.80;3.63;;;14.50;99.90;;;;;;5028747;28;20292;-83
2021/12/31 12:43:20;;;;;;;4.70;3.40;;;14.40;99.90;;;;;;5025657;28;20231;-82
2021/12/31 12:45:50;;;;;;;7.15;3.85;;;14.40;99.90;;;;;;5021938;28;20252;-83
2021/12/31 12:48:17;;;;;;;7.50;4.22;;;14.40;99.90;;;;;;5022441;28;20205;-82
2021/12/31 12:50:50;;;;;;;3.10;2.80;;;14.40;99.90;;;;;;5023276;28;20243;-84
2021/12/31 12:53:25;;;;;;;4.72;3.47;;;14.40;99.90;;;;;;5026727;28;20288;-83
2021/12/31 12:56:02;;;;;;;7.15;4.00;;;14.40;99.90;;;;;;5026688;28;20327;-83